Time;durP1;ratioP1;P1;durP2;ratioP2;P2;SDS_P1;SDS_P2;PMS_P1;PMS_P2;Temp;Humidity;BMP_temperature;BMP_pressure;BME280_temperature;BME280_humidity;BME280_pressure;Samples;Min_cycle;Max_cycle;Signal;HPM_P1;HPM_P2
2023/09/14 00:01:47;;;;;;;0.00;0.00;;;13.40;79.80;;;;;;5008975;28;20042;-69
2023/09/14 00:04:13;;;;;;;0.00;0.00;;;13.40;79.90;;;;;;5011051;28;20046;-68
2023/09/14 00:06:38;;;;;;;0.00;0.00;;;13.50;79.80;;;;;;5010295;28;20072;-69
2023/09/14 00:09:04;;;;;;;0.00;0.00;;;13.40;79.80;;;;;;5010219;28;20125;-69
2023/09/14 00:11:30;;;;;;;0.05;0.05;;;13.30;79.70;;;;;;5010451;28;20069;-69
2023/09/14 00:13:55;;;;;;;0.00;0.00;;;13.30;79.60;;;;;;5010085;28;20117;-69
2023/09/14 00:16:21;;;;;;;0.00;0.00;;;13.30;79.50;;;;;;5009746;28;20499;-69
2023/09/14 00:18:46;;;;;;;0.00;0.00;;;13.30;79.60;;;;;;5010351;28;20050;-68
2023/09/14 00:21:12;;;;;;;0.00;0.00;;;13.20;79.50;;;;;;5009685;28;20050;-69
2023/09/14 00:23:38;;;;;;;0.00;0.00;;;13.20;79.60;;;;;;5010335;28;20120;-69
2023/09/14 00:26:03;;;;;;;0.00;0.00;;;13.20;79.60;;;;;;5010237;28;20129;-68
2023/09/14 00:28:29;;;;;;;0.00;0.00;;;13.20;79.80;;;;;;5010312;28;20191;-68
2023/09/14 00:30:56;;;;;;;0.00;0.00;;;13.20;79.90;;;;;;5010051;28;20044;-68
2023/09/14 00:33:23;;;;;;;0.00;0.00;;;13.20;79.90;;;;;;5010158;28;20038;-68
2023/09/14 00:35:48;;;;;;;0.00;0.00;;;13.20;79.90;;;;;;4989009;28;20460;-69
2023/09/14 00:38:14;;;;;;;0.00;0.00;;;13.10;80.00;;;;;;4990745;28;20142;-68
2023/09/14 00:40:41;;;;;;;0.00;0.00;;;13.10;80.10;;;;;;5005010;28;20077;-68
2023/09/14 00:43:07;;;;;;;0.00;0.00;;;13.10;80.20;;;;;;4992148;28;20120;-68
2023/09/14 00:45:33;;;;;;;0.00;0.00;;;13.20;80.30;;;;;;5010217;28;20050;-69
2023/09/14 00:48:02;;;;;;;0.00;0.00;;;13.10;80.30;;;;;;5010455;28;20046;-68
2023/09/14 00:50:29;;;;;;;0.00;0.00;;;13.20;80.30;;;;;;5009578;28;20054;-68
2023/09/14 00:53:08;;;;;;;0.00;0.00;;;13.20;80.40;;;;;;5010002;28;20053;-68
2023/09/14 00:55:34;;;;;;;0.00;0.00;;;13.20;80.40;;;;;;5010147;28;20037;-69
2023/09/14 00:58:00;;;;;;;0.00;0.00;;;13.20;80.50;;;;;;5009492;28;20141;-68
2023/09/14 01:00:27;;;;;;;0.00;0.00;;;13.20;80.50;;;;;;5004982;28;20042;-68
2023/09/14 01:02:58;;;;;;;0.00;0.00;;;13.20;80.50;;;;;;5008797;28;20064;-68
2023/09/14 01:05:30;;;;;;;0.00;0.00;;;13.30;80.50;;;;;;5008656;28;20518;-69
2023/09/14 01:07:59;;;;;;;;;;;13.20;80.50;;;;;;5009205;28;20045;-69
2023/09/14 01:10:24;;;;;;;0.00;0.00;;;13.30;80.60;;;;;;5008211;28;19921;-69
2023/09/14 01:12:50;;;;;;;0.00;0.00;;;13.20;80.50;;;;;;5008542;28;20053;-69
2023/09/14 01:15:19;;;;;;;0.00;0.00;;;13.20;80.50;;;;;;5009001;28;20050;-68
2023/09/14 01:18:07;;;;;;;0.00;0.00;;;13.20;80.60;;;;;;5008147;28;20157;-68
2023/09/14 01:20:49;;;;;;;0.00;0.00;;;13.20;80.50;;;;;;4989253;28;20058;-69
2023/09/14 01:23:31;;;;;;;0.00;0.00;;;13.10;80.50;;;;;;5007264;28;20046;-68
2023/09/14 01:25:58;;;;;;;0.00;0.00;;;13.10;80.40;;;;;;5008614;28;20034;-69
2023/09/14 01:28:24;;;;;;;0.00;0.00;;;13.10;80.30;;;;;;5011428;28;20049;-68
2023/09/14 01:30:49;;;;;;;0.00;0.00;;;13.10;80.10;;;;;;5012518;28;20046;-69
2023/09/14 01:33:15;;;;;;;0.00;0.00;;;13.10;80.10;;;;;;5012029;28;20526;-69
2023/09/14 01:35:56;;;;;;;0.00;0.00;;;13.10;80.10;;;;;;5011803;28;20117;-68
2023/09/14 01:38:22;;;;;;;0.00;0.00;;;13.10;79.90;;;;;;5012134;28;20049;-69
2023/09/14 01:40:49;;;;;;;0.00;0.00;;;13.10;80.00;;;;;;5012432;28;20418;-68
2023/09/14 01:43:16;;;;;;;0.00;0.00;;;13.10;80.10;;;;;;5011882;28;20071;-68
2023/09/14 01:45:42;;;;;;;0.00;0.00;;;13.10;80.00;;;;;;5011829;28;20087;-69
2023/09/14 01:48:13;;;;;;;0.00;0.00;;;13.10;79.90;;;;;;5012254;28;20057;-69
2023/09/14 01:50:38;;;;;;;0.00;0.00;;;13.10;80.00;;;;;;4994864;28;20449;-69
2023/09/14 01:53:04;;;;;;;0.00;0.00;;;13.00;80.30;;;;;;5011508;28;20046;-69
2023/09/14 01:55:29;;;;;;;0.00;0.00;;;13.00;80.30;;;;;;5011205;28;20115;-69
2023/09/14 01:57:55;;;;;;;0.00;0.00;;;13.00;80.40;;;;;;5011504;28;20426;-69
2023/09/14 02:00:21;;;;;;;0.10;0.10;;;12.90;80.30;;;;;;5012102;28;20411;-69
2023/09/14 02:02:46;;;;;;;0.00;0.00;;;12.90;80.40;;;;;;5011588;28;20392;-69
2023/09/14 02:05:12;;;;;;;0.00;0.00;;;12.90;80.50;;;;;;5011379;28;20064;-68
2023/09/14 02:07:37;;;;;;;0.00;0.00;;;12.80;80.60;;;;;;5011934;28;20042;-68
2023/09/14 02:10:03;;;;;;;0.00;0.00;;;12.90;80.70;;;;;;5011508;28;20212;-69
2023/09/14 02:12:29;;;;;;;0.03;0.03;;;12.80;80.70;;;;;;5011012;28;20085;-69
2023/09/14 02:14:54;;;;;;;0.00;0.00;;;12.80;80.80;;;;;;5011517;28;20129;-69
2023/09/14 02:17:20;;;;;;;0.00;0.00;;;12.80;81.00;;;;;;5011608;28;20056;-69
2023/09/14 02:19:45;;;;;;;0.00;0.00;;;12.70;81.00;;;;;;5011429;28;20053;-69
2023/09/14 02:22:11;;;;;;;0.00;0.00;;;12.70;81.00;;;;;;5010740;28;20061;-69
2023/09/14 02:24:36;;;;;;;0.00;0.00;;;12.70;81.10;;;;;;5011212;28;20584;-69
2023/09/14 02:27:02;;;;;;;0.00;0.00;;;12.70;81.10;;;;;;5011264;28;20404;-69
2023/09/14 02:29:30;;;;;;;0.00;0.00;;;12.70;81.30;;;;;;5011808;28;20136;-69
2023/09/14 02:31:56;;;;;;;0.00;0.00;;;12.60;81.40;;;;;;5010993;28;20064;-68
2023/09/14 02:34:21;;;;;;;0.00;0.00;;;12.60;81.40;;;;;;5011253;28;20041;-69
2023/09/14 02:36:47;;;;;;;0.00;0.00;;;12.70;81.50;;;;;;4997155;28;20439;-69
2023/09/14 02:39:13;;;;;;;0.00;0.00;;;12.60;81.60;;;;;;4990734;28;20414;-68
2023/09/14 02:41:38;;;;;;;0.00;0.00;;;12.60;81.70;;;;;;5005515;28;20691;-69
2023/09/14 02:44:04;;;;;;;0.00;0.00;;;12.60;81.60;;;;;;5010700;28;20137;-69
2023/09/14 02:46:29;;;;;;;0.00;0.00;;;12.60;81.60;;;;;;4976560;28;20129;-69
2023/09/14 02:48:55;;;;;;;0.00;0.00;;;12.60;81.50;;;;;;5010674;28;20073;-69
2023/09/14 02:51:21;;;;;;;0.00;0.00;;;12.60;81.60;;;;;;5010890;28;20046;-69
2023/09/14 02:53:47;;;;;;;0.00;0.00;;;12.60;81.70;;;;;;5010718;28;20406;-69
2023/09/14 02:56:12;;;;;;;0.00;0.00;;;12.60;81.70;;;;;;5011012;28;20485;-68
2023/09/14 02:58:38;;;;;;;0.03;0.03;;;12.60;81.70;;;;;;4993181;28;20081;-68
2023/09/14 03:01:11;;;;;;;0.00;0.00;;;12.60;81.80;;;;;;5010156;28;20092;-69
2023/09/14 03:03:37;;;;;;;0.00;0.00;;;12.60;81.80;;;;;;5010438;28;20044;-69
2023/09/14 03:06:03;;;;;;;0.00;0.00;;;12.60;81.80;;;;;;5010937;28;20046;-69
2023/09/14 03:08:29;;;;;;;0.00;0.00;;;12.60;81.80;;;;;;5010649;28;20050;-69
2023/09/14 03:10:55;;;;;;;0.00;0.00;;;12.60;81.80;;;;;;5010428;28;20057;-69
2023/09/14 03:13:22;;;;;;;0.00;0.00;;;12.70;81.80;;;;;;4992625;28;20050;-69
2023/09/14 03:15:55;;;;;;;0.00;0.00;;;12.60;81.80;;;;;;5010652;28;20045;-69
2023/09/14 03:18:21;;;;;;;0.00;0.00;;;12.60;81.80;;;;;;5009709;28;20054;-69
2023/09/14 03:20:51;;;;;;;0.00;0.00;;;12.60;81.80;;;;;;5009848;28;20390;-69
2023/09/14 03:23:16;;;;;;;0.00;0.00;;;12.50;81.90;;;;;;5010117;28;20132;-69
2023/09/14 03:25:42;;;;;;;0.00;0.00;;;12.50;82.00;;;;;;5009995;28;20562;-69
2023/09/14 03:28:08;;;;;;;0.05;0.05;;;12.50;82.00;;;;;;4976837;28;20053;-69
2023/09/14 03:30:35;;;;;;;0.00;0.00;;;12.40;82.10;;;;;;5009330;28;20042;-69
2023/09/14 03:33:00;;;;;;;0.00;0.00;;;12.40;82.20;;;;;;5010053;28;20042;-69
2023/09/14 03:35:26;;;;;;;0.00;0.00;;;12.40;82.30;;;;;;5009944;28;20048;-69
2023/09/14 03:37:51;;;;;;;0.00;0.00;;;12.40;82.20;;;;;;5010123;28;20081;-69
2023/09/14 03:40:17;;;;;;;0.00;0.00;;;12.40;82.10;;;;;;5010334;28;20125;-69
2023/09/14 03:42:43;;;;;;;0.00;0.00;;;12.30;82.10;;;;;;5008755;28;20772;-69
2023/09/14 03:45:08;;;;;;;0.00;0.00;;;12.30;82.00;;;;;;5010011;28;20045;-69
2023/09/14 03:47:34;;;;;;;0.00;0.00;;;12.30;81.90;;;;;;5010027;28;20045;-69
2023/09/14 03:50:00;;;;;;;0.00;0.00;;;12.30;81.90;;;;;;5010031;28;20049;-69
2023/09/14 03:52:25;;;;;;;0.00;0.00;;;12.30;81.90;;;;;;5009000;28;20038;-69
2023/09/14 03:54:51;;;;;;;0.00;0.00;;;12.30;82.00;;;;;;5009828;28;20038;-69
2023/09/14 03:57:16;;;;;;;0.00;0.00;;;12.30;82.10;;;;;;5009071;28;20407;-69
2023/09/14 03:59:43;;;;;;;0.00;0.00;;;12.30;82.20;;;;;;5008888;28;20478;-69
2023/09/14 04:02:09;;;;;;;0.00;0.00;;;12.30;82.10;;;;;;5005102;28;20042;-69
2023/09/14 04:04:35;;;;;;;0.00;0.00;;;12.30;82.10;;;;;;5008607;28;20096;-69
2023/09/14 04:07:00;;;;;;;0.00;0.00;;;12.30;82.10;;;;;;5009442;28;20749;-68
2023/09/14 04:09:29;;;;;;;0.10;0.10;;;12.30;82.10;;;;;;4991657;28;20507;-68
2023/09/14 04:11:56;;;;;;;0.00;0.00;;;12.30;82.00;;;;;;5009196;28;20042;-69
2023/09/14 04:14:22;;;;;;;0.00;0.00;;;12.20;82.10;;;;;;4991444;28;20096;-68
2023/09/14 04:16:48;;;;;;;0.00;0.00;;;12.30;82.10;;;;;;5003139;28;20487;-68
2023/09/14 04:19:14;;;;;;;0.10;0.10;;;12.20;82.10;;;;;;5008944;28;20049;-68
2023/09/14 04:21:41;;;;;;;0.00;0.00;;;12.20;82.10;;;;;;5008762;28;20070;-69
2023/09/14 04:24:07;;;;;;;0.00;0.00;;;12.20;82.10;;;;;;5009203;28;20549;-69
2023/09/14 04:26:33;;;;;;;0.00;0.00;;;12.20;82.20;;;;;;4993168;28;20133;-68
2023/09/14 04:28:59;;;;;;;0.00;0.00;;;12.20;82.20;;;;;;4999210;28;20066;-69
2023/09/14 04:31:25;;;;;;;0.00;0.00;;;12.20;82.30;;;;;;5007359;28;20053;-68
2023/09/14 04:33:51;;;;;;;0.00;0.00;;;12.30;82.30;;;;;;5009059;28;20041;-68
2023/09/14 04:36:17;;;;;;;0.00;0.00;;;12.20;82.30;;;;;;5008409;28;20045;-68
2023/09/14 04:38:42;;;;;;;0.00;0.00;;;12.20;82.20;;;;;;5008883;28;20073;-69
2023/09/14 04:41:08;;;;;;;0.00;0.00;;;12.20;82.40;;;;;;5008960;28;20041;-68
2023/09/14 04:43:34;;;;;;;0.00;0.00;;;12.20;82.50;;;;;;5009309;28;20046;-67
2023/09/14 04:46:00;;;;;;;0.00;0.00;;;12.20;82.50;;;;;;5009278;28;20041;-68
2023/09/14 04:48:26;;;;;;;0.10;0.10;;;12.30;82.50;;;;;;5009186;28;20084;-68
2023/09/14 04:50:55;;;;;;;0.00;0.00;;;12.20;82.50;;;;;;5002280;28;20066;-68
2023/09/14 04:53:20;;;;;;;0.00;0.00;;;12.20;82.60;;;;;;4988915;28;20133;-68
2023/09/14 04:55:46;;;;;;;0.00;0.00;;;12.20;82.60;;;;;;4989406;28;20121;-67
2023/09/14 04:58:12;;;;;;;0.00;0.00;;;12.20;82.60;;;;;;5008358;28;20050;-67
2023/09/14 05:00:38;;;;;;;0.05;0.05;;;12.20;82.60;;;;;;5008614;28;20112;-68
2023/09/14 05:03:05;;;;;;;0.00;0.00;;;12.20;82.70;;;;;;5008990;28;20124;-70
2023/09/14 05:05:32;;;;;;;0.05;0.05;;;12.20;82.80;;;;;;5012872;28;20081;-70
2023/09/14 05:07:58;;;;;;;0.00;0.00;;;12.40;84.00;;;;;;5012597;28;20164;-70
2023/09/14 05:10:25;;;;;;;0.00;0.00;;;12.70;85.70;;;;;;4993069;28;20053;-70
2023/09/14 05:12:51;;;;;;;0.00;0.00;;;12.80;84.90;;;;;;5005807;28;20136;-69
2023/09/14 05:15:17;;;;;;;0.00;0.00;;;12.70;84.20;;;;;;5012306;28;20867;-70
2023/09/14 05:17:43;;;;;;;0.00;0.00;;;12.60;83.70;;;;;;4995304;28;20076;-69
2023/09/14 05:20:10;;;;;;;0.00;0.00;;;12.70;83.40;;;;;;5012917;28;20499;-70
2023/09/14 05:22:37;;;;;;;0.00;0.00;;;12.60;83.20;;;;;;5012984;28;20053;-69
2023/09/14 05:25:03;;;;;;;0.00;0.00;;;12.60;83.10;;;;;;5012719;28;20053;-69
2023/09/14 05:27:35;;;;;;;0.00;0.00;;;12.60;83.00;;;;;;5012914;28;20866;-69
2023/09/14 05:30:01;;;;;;;0.00;0.00;;;12.60;82.80;;;;;;4995208;28;20092;-70
2023/09/14 05:32:26;;;;;;;0.00;0.00;;;12.50;82.70;;;;;;5012590;28;20046;-69
2023/09/14 05:34:52;;;;;;;0.00;0.00;;;12.50;82.70;;;;;;5012585;28;20479;-69
2023/09/14 05:37:17;;;;;;;0.00;0.00;;;12.50;82.60;;;;;;4995454;28;20060;-70
2023/09/14 05:39:43;;;;;;;0.00;0.00;;;12.50;82.60;;;;;;4994974;28;20177;-69
2023/09/14 05:42:08;;;;;;;0.00;0.00;;;12.50;82.60;;;;;;5012345;28;20080;-69
2023/09/14 05:44:34;;;;;;;0.00;0.00;;;12.50;82.60;;;;;;5012093;28;20120;-69
2023/09/14 05:46:59;;;;;;;0.08;0.08;;;12.50;82.50;;;;;;5012565;28;20129;-69
2023/09/14 05:49:25;;;;;;;0.05;0.05;;;12.50;82.50;;;;;;5012511;28;20609;-69
2023/09/14 05:51:51;;;;;;;0.00;0.00;;;12.50;82.50;;;;;;5012233;28;20162;-69
2023/09/14 05:54:16;;;;;;;0.00;0.00;;;12.50;82.50;;;;;;5012159;28;20041;-69
2023/09/14 05:56:42;;;;;;;0.00;0.00;;;12.40;82.40;;;;;;5011917;28;20050;-69
2023/09/14 05:59:07;;;;;;;0.00;0.00;;;12.40;82.40;;;;;;5012235;28;20045;-69
2023/09/14 06:01:33;;;;;;;0.00;0.00;;;12.40;82.30;;;;;;5012045;28;20085;-69
2023/09/14 06:03:59;;;;;;;0.10;0.10;;;12.50;82.40;;;;;;5012125;28;20076;-69
2023/09/14 06:06:24;;;;;;;0.00;0.00;;;12.40;82.30;;;;;;5012570;28;20045;-70
2023/09/14 06:08:50;;;;;;;0.00;0.00;;;12.40;82.20;;;;;;5012028;28;20057;-69
2023/09/14 06:11:15;;;;;;;0.00;0.00;;;12.40;82.20;;;;;;5012026;28;20054;-69
2023/09/14 06:13:43;;;;;;;0.00;0.00;;;12.40;82.30;;;;;;4994716;28;20042;-69
2023/09/14 06:16:09;;;;;;;0.00;0.00;;;12.50;82.50;;;;;;5011701;28;20046;-69
2023/09/14 06:18:34;;;;;;;0.00;0.00;;;12.50;82.50;;;;;;5011235;28;20049;-69
2023/09/14 06:21:00;;;;;;;0.00;0.00;;;12.40;82.50;;;;;;5011592;28;20140;-69
2023/09/14 06:23:26;;;;;;;0.85;0.65;;;12.40;82.50;;;;;;4994154;28;20136;-70
2023/09/14 06:25:52;;;;;;;0.00;0.00;;;12.50;82.50;;;;;;5011887;28;20514;-70
2023/09/14 06:28:18;;;;;;;0.00;0.00;;;12.50;82.50;;;;;;5011519;28;20058;-69
2023/09/14 06:30:43;;;;;;;0.00;0.00;;;12.50;82.60;;;;;;5011414;28;20509;-69
2023/09/14 06:33:09;;;;;;;0.00;0.00;;;12.60;82.60;;;;;;5011719;28;20058;-69
2023/09/14 06:35:34;;;;;;;0.00;0.00;;;12.60;82.50;;;;;;5011407;28;20046;-69
2023/09/14 06:38:00;;;;;;;0.00;0.00;;;12.60;82.50;;;;;;5011406;28;20147;-69
2023/09/14 06:40:26;;;;;;;0.00;0.00;;;12.70;82.50;;;;;;5011096;28;20082;-69
2023/09/14 06:42:51;;;;;;;0.00;0.00;;;12.70;82.60;;;;;;5011386;28;20042;-69
2023/09/14 06:45:17;;;;;;;0.00;0.00;;;12.80;82.60;;;;;;5011535;28;20058;-69
2023/09/14 06:47:42;;;;;;;0.00;0.00;;;12.90;82.60;;;;;;4993343;28;20092;-70
2023/09/14 06:50:08;;;;;;;0.00;0.00;;;12.90;82.60;;;;;;5011276;28;20038;-69
2023/09/14 06:52:34;;;;;;;0.00;0.00;;;12.90;82.60;;;;;;5010950;28;20120;-69
2023/09/14 06:55:00;;;;;;;0.00;0.00;;;13.10;82.70;;;;;;5010991;28;20475;-69
2023/09/14 06:57:25;;;;;;;0.00;0.00;;;13.10;82.70;;;;;;5010704;28;20092;-69
2023/09/14 06:59:51;;;;;;;0.00;0.00;;;13.10;82.70;;;;;;5010959;28;20438;-70
2023/09/14 07:02:19;;;;;;;0.00;0.00;;;13.20;82.80;;;;;;4993293;28;20050;-70
2023/09/14 07:04:45;;;;;;;0.00;0.00;;;13.30;82.80;;;;;;5010829;28;20049;-70
2023/09/14 07:07:13;;;;;;;0.00;0.00;;;13.40;82.80;;;;;;5010962;28;20402;-70
2023/09/14 07:09:42;;;;;;;0.08;0.08;;;13.40;83.10;;;;;;5010680;28;20396;-69
2023/09/14 07:12:07;;;;;;;0.00;0.00;;;13.50;83.20;;;;;;5010442;28;20103;-70
2023/09/14 07:14:33;;;;;;;0.00;0.00;;;13.60;83.20;;;;;;5010853;28;20699;-69
2023/09/14 07:16:59;;;;;;;0.00;0.00;;;13.60;83.20;;;;;;5010774;28;20060;-69
2023/09/14 07:19:26;;;;;;;0.00;0.00;;;13.70;83.20;;;;;;4992570;28;20050;-69
2023/09/14 07:21:55;;;;;;;0.00;0.00;;;13.80;83.20;;;;;;4973390;28;20062;-69
2023/09/14 07:24:24;;;;;;;0.00;0.00;;;13.90;83.30;;;;;;4990683;28;21100;-70
2023/09/14 07:26:49;;;;;;;0.00;0.00;;;14.00;83.20;;;;;;4990799;28;20050;-69
2023/09/14 07:29:15;;;;;;;0.00;0.00;;;14.00;83.10;;;;;;4990968;28;20574;-70
2023/09/14 07:31:41;;;;;;;0.00;0.00;;;14.10;83.00;;;;;;4973363;28;20046;-69
2023/09/14 07:34:07;;;;;;;0.00;0.00;;;14.20;82.90;;;;;;4990960;28;20050;-69
2023/09/14 07:36:33;;;;;;;0.00;0.00;;;14.30;83.00;;;;;;4990993;28;20061;-70
2023/09/14 07:38:59;;;;;;;0.00;0.00;;;14.40;83.10;;;;;;4990791;28;20046;-70
2023/09/14 07:41:26;;;;;;;0.03;0.03;;;14.50;82.90;;;;;;4990639;28;20502;-69
2023/09/14 07:43:52;;;;;;;0.00;0.00;;;14.60;82.90;;;;;;4990772;28;20057;-70
2023/09/14 07:46:17;;;;;;;0.00;0.00;;;14.60;82.80;;;;;;4990768;28;20046;-70
2023/09/14 07:48:43;;;;;;;0.10;0.10;;;14.80;82.40;;;;;;4990510;28;20050;-69
2023/09/14 07:51:08;;;;;;;0.00;0.00;;;14.80;82.00;;;;;;4990484;28;20514;-69
2023/09/14 07:53:34;;;;;;;0.00;0.00;;;14.90;81.40;;;;;;4989986;28;20088;-70
2023/09/14 07:55:59;;;;;;;0.00;0.00;;;15.00;80.70;;;;;;4990534;28;20061;-69
2023/09/14 07:58:25;;;;;;;0.00;0.00;;;15.10;80.40;;;;;;4990407;28;20043;-69
2023/09/14 08:00:51;;;;;;;0.00;0.00;;;15.20;80.00;;;;;;4989962;28;20855;-69
2023/09/14 08:03:16;;;;;;;0.00;0.00;;;15.20;79.50;;;;;;4990279;28;20050;-69
2023/09/14 08:05:42;;;;;;;0.00;0.00;;;15.30;79.30;;;;;;4990473;28;20139;-69
2023/09/14 08:08:11;;;;;;;0.00;0.00;;;15.50;79.40;;;;;;4988994;28;20057;-70
2023/09/14 08:10:37;;;;;;;0.30;0.30;;;15.50;79.40;;;;;;4990114;28;20046;-69
2023/09/14 08:13:02;;;;;;;0.00;0.00;;;15.50;78.50;;;;;;4990515;28;20046;-70
2023/09/14 08:15:28;;;;;;;0.00;0.00;;;15.60;78.50;;;;;;4990091;28;20042;-70
2023/09/14 08:17:54;;;;;;;0.00;0.00;;;15.60;77.80;;;;;;4989779;28;20561;-70
2023/09/14 08:20:20;;;;;;;0.00;0.00;;;15.70;78.00;;;;;;4973571;28;20125;-69
2023/09/14 08:22:45;;;;;;;0.00;0.00;;;15.70;77.80;;;;;;5009441;28;20089;-70
2023/09/14 08:25:13;;;;;;;0.00;0.00;;;15.80;77.90;;;;;;5009554;28;20046;-70
2023/09/14 08:27:40;;;;;;;0.10;0.10;;;15.90;78.20;;;;;;5009370;28;20046;-69
2023/09/14 08:30:10;;;;;;;0.00;0.00;;;16.00;78.50;;;;;;4991884;28;20499;-70
2023/09/14 08:32:35;;;;;;;0.00;0.00;;;16.10;78.40;;;;;;5009482;28;20077;-70
2023/09/14 08:35:19;;;;;;;0.00;0.00;;;16.10;78.40;;;;;;5009067;28;20042;-70
2023/09/14 08:37:45;;;;;;;0.00;0.00;;;16.20;78.20;;;;;;5008500;28;20406;-70
2023/09/14 08:40:14;;;;;;;0.00;0.00;;;16.30;77.90;;;;;;4991819;28;20045;-69
2023/09/14 08:42:41;;;;;;;0.00;0.00;;;16.30;77.30;;;;;;5009610;28;20396;-69
2023/09/14 08:45:12;;;;;;;0.00;0.00;;;16.40;77.60;;;;;;5009503;28;20046;-70
2023/09/14 08:47:43;;;;;;;0.00;0.00;;;16.50;77.60;;;;;;5009257;28;20088;-70
2023/09/14 08:50:13;;;;;;;;;;;16.60;77.30;;;;;;5009782;28;20053;-70
2023/09/14 08:52:40;;;;;;;0.00;0.00;;;16.60;76.30;;;;;;5009481;28;19928;-69
2023/09/14 08:55:08;;;;;;;0.00;0.00;;;16.60;76.20;;;;;;5009472;28;20088;-69
2023/09/14 08:57:36;;;;;;;0.00;0.00;;;16.70;75.70;;;;;;5009586;28;20115;-70
2023/09/14 09:00:08;;;;;;;0.00;0.00;;;16.80;76.00;;;;;;5009194;28;20739;-70
2023/09/14 09:02:35;;;;;;;0.00;0.00;;;16.90;75.90;;;;;;4991565;28;20045;-70
2023/09/14 09:05:02;;;;;;;0.00;0.00;;;17.00;75.20;;;;;;5009265;28;20053;-69
2023/09/14 09:07:28;;;;;;;0.00;0.00;;;17.00;74.70;;;;;;5008437;28;20052;-70
2023/09/14 09:09:56;;;;;;;0.00;0.00;;;17.00;74.40;;;;;;5009119;28;20121;-70
2023/09/14 09:12:22;;;;;;;0.10;0.10;;;17.10;74.80;;;;;;4975412;28;20184;-70
2023/09/14 09:14:48;;;;;;;0.10;0.10;;;17.10;74.60;;;;;;5009297;28;20050;-70
2023/09/14 09:17:14;;;;;;;0.00;0.00;;;17.30;75.00;;;;;;5008753;28;20053;-70
2023/09/14 09:19:47;;;;;;;0.00;0.00;;;17.40;75.40;;;;;;5009346;28;20794;-70
2023/09/14 09:22:14;;;;;;;0.60;0.57;;;17.50;73.50;;;;;;5009012;28;20073;-70
2023/09/14 09:24:40;;;;;;;0.00;0.00;;;17.50;73.50;;;;;;5009079;28;20053;-70
2023/09/14 09:27:25;;;;;;;0.05;0.05;;;17.50;73.20;;;;;;5009185;28;20049;-70
2023/09/14 09:29:51;;;;;;;0.00;0.00;;;17.50;73.50;;;;;;5008713;28;20100;-70
2023/09/14 09:32:22;;;;;;;0.00;0.00;;;17.60;73.70;;;;;;5009229;28;20491;-70
2023/09/14 09:34:48;;;;;;;0.00;0.00;;;17.70;72.20;;;;;;5009141;28;20395;-70
2023/09/14 09:37:17;;;;;;;0.10;0.10;;;17.70;72.20;;;;;;5008964;28;20046;-70
2023/09/14 09:39:43;;;;;;;0.00;0.00;;;17.70;71.80;;;;;;5008933;28;20049;-70
2023/09/14 09:42:12;;;;;;;4.95;2.38;;;17.70;70.90;;;;;;5009063;28;20089;-70
2023/09/14 09:44:38;;;;;;;0.00;0.00;;;17.70;71.90;;;;;;4991361;28;20144;-70
2023/09/14 09:47:04;;;;;;;0.20;0.20;;;17.80;72.10;;;;;;5008719;28;20061;-70
2023/09/14 09:49:31;;;;;;;0.00;0.00;;;17.90;71.00;;;;;;5011591;28;20447;-70
2023/09/14 09:51:57;;;;;;;0.00;0.00;;;18.00;71.60;;;;;;5012446;28;20054;-70
2023/09/14 09:54:24;;;;;;;0.00;0.00;;;18.10;71.90;;;;;;5012391;28;20120;-70
2023/09/14 09:56:53;;;;;;;0.00;0.00;;;18.10;71.20;;;;;;5011960;28;20056;-70
2023/09/14 09:59:19;;;;;;;0.00;0.00;;;18.20;71.30;;;;;;5012277;28;20049;-70
2023/09/14 10:01:48;;;;;;;0.00;0.00;;;18.20;70.90;;;;;;5012011;28;20049;-70
2023/09/14 10:04:15;;;;;;;0.00;0.00;;;18.20;69.70;;;;;;5011972;28;20054;-70
2023/09/14 10:06:48;;;;;;;0.00;0.00;;;18.10;70.80;;;;;;5012216;28;20526;-70
2023/09/14 10:09:14;;;;;;;0.00;0.00;;;18.10;70.60;;;;;;4978300;28;20121;-70
2023/09/14 10:11:40;;;;;;;0.00;0.00;;;18.10;71.70;;;;;;5012043;28;20195;-70
2023/09/14 10:14:08;;;;;;;0.00;0.00;;;18.10;71.10;;;;;;5011456;28;20493;-69
2023/09/14 10:16:41;;;;;;;0.00;0.00;;;18.10;71.10;;;;;;4994663;28;20172;-70
2023/09/14 10:19:07;;;;;;;0.00;0.00;;;18.10;70.90;;;;;;5011567;28;20502;-70
2023/09/14 10:21:37;;;;;;;0.00;0.00;;;18.10;71.60;;;;;;5011406;28;20092;-70
2023/09/14 10:24:09;;;;;;;0.00;0.00;;;18.20;70.20;;;;;;5011579;28;20088;-70
2023/09/14 10:26:39;;;;;;;0.00;0.00;;;18.20;68.70;;;;;;5011669;28;20053;-70
2023/09/14 10:29:08;;;;;;;0.00;0.00;;;18.30;70.30;;;;;;5011526;28;20153;-70
2023/09/14 10:31:35;;;;;;;0.00;0.00;;;18.30;70.60;;;;;;5011578;28;20050;-70
2023/09/14 10:34:01;;;;;;;0.00;0.00;;;18.30;71.20;;;;;;4977859;28;20054;-69
2023/09/14 10:36:30;;;;;;;0.00;0.00;;;18.20;70.70;;;;;;5011184;28;20049;-69
2023/09/14 10:38:58;;;;;;;0.00;0.00;;;18.10;69.00;;;;;;5011470;28;20054;-70
2023/09/14 10:41:24;;;;;;;0.00;0.00;;;18.10;69.30;;;;;;5011413;28;20096;-70
2023/09/14 10:43:50;;;;;;;0.00;0.00;;;18.20;69.50;;;;;;5011613;28;20769;-70
2023/09/14 10:46:22;;;;;;;0.00;0.00;;;18.20;68.20;;;;;;5010931;28;20050;-70
2023/09/14 10:48:48;;;;;;;0.00;0.00;;;18.30;68.20;;;;;;5011412;28;20058;-70
2023/09/14 10:51:22;;;;;;;0.00;0.00;;;18.40;67.80;;;;;;5011251;28;20196;-70
2023/09/14 10:53:47;;;;;;;0.00;0.00;;;18.50;67.70;;;;;;5011202;28;20410;-70
2023/09/14 10:56:30;;;;;;;0.00;0.00;;;18.50;68.60;;;;;;4993409;28;20053;-69
2023/09/14 10:58:56;;;;;;;0.00;0.00;;;18.50;68.00;;;;;;5011043;28;20049;-70
2023/09/14 11:01:26;;;;;;;0.10;0.10;;;18.50;69.10;;;;;;5010219;28;20081;-71
2023/09/14 11:04:13;;;;;;;0.00;0.00;;;18.50;68.00;;;;;;5010916;28;20054;-71
2023/09/14 11:06:43;;;;;;;0.00;0.00;;;18.50;68.20;;;;;;5010736;28;20107;-71
2023/09/14 11:09:08;;;;;;;0.00;0.00;;;18.50;68.50;;;;;;5011051;28;20100;-70
2023/09/14 11:11:38;;;;;;;0.00;0.00;;;18.50;68.40;;;;;;5010458;28;20450;-71
2023/09/14 11:14:08;;;;;;;0.00;0.00;;;18.40;68.60;;;;;;5010962;28;20050;-71
2023/09/14 11:16:53;;;;;;;0.00;0.00;;;18.50;68.70;;;;;;5010773;28;20053;-70
2023/09/14 11:19:31;;;;;;;0.00;0.00;;;18.60;68.20;;;;;;5009234;28;20054;-70
2023/09/14 11:22:11;;;;;;;0.00;0.00;;;18.70;68.30;;;;;;5010470;28;20064;-70
2023/09/14 11:24:36;;;;;;;0.00;0.00;;;18.90;69.50;;;;;;5010102;28;20133;-70
2023/09/14 11:27:02;;;;;;;0.15;0.13;;;19.00;68.20;;;;;;5010606;28;20045;-70
2023/09/14 11:29:30;;;;;;;0.00;0.00;;;19.00;66.20;;;;;;5010559;28;20061;-70
2023/09/14 11:32:03;;;;;;;0.00;0.00;;;19.20;67.00;;;;;;5010388;28;20045;-70
2023/09/14 11:34:31;;;;;;;0.00;0.00;;;19.20;67.10;;;;;;4976226;28;20045;-70
2023/09/14 11:37:05;;;;;;;0.00;0.00;;;19.30;66.70;;;;;;5010595;28;20137;-70
2023/09/14 11:39:31;;;;;;;0.00;0.00;;;19.40;66.70;;;;;;5010104;28;20141;-70
2023/09/14 11:42:04;;;;;;;0.00;0.00;;;19.40;66.60;;;;;;5010090;28;20050;-71
2023/09/14 11:44:31;;;;;;;0.00;0.00;;;19.50;67.60;;;;;;5010483;28;20083;-70
2023/09/14 11:47:01;;;;;;;0.10;0.10;;;19.60;67.20;;;;;;5010307;28;20045;-70
2023/09/14 11:49:29;;;;;;;0.00;0.00;;;19.60;65.40;;;;;;5009965;28;20038;-70
2023/09/14 11:51:55;;;;;;;0.00;0.00;;;19.70;66.90;;;;;;4992603;28;20053;-70
2023/09/14 11:54:21;;;;;;;0.00;0.00;;;19.70;66.30;;;;;;5010061;28;20054;-70
2023/09/14 11:56:48;;;;;;;0.28;0.25;;;19.70;66.00;;;;;;5009871;28;20410;-70
2023/09/14 11:59:28;;;;;;;0.10;0.10;;;19.60;64.90;;;;;;5009529;28;20760;-70
2023/09/14 12:01:53;;;;;;;0.00;0.00;;;19.50;64.20;;;;;;4992183;28;20054;-70
2023/09/14 12:04:26;;;;;;;0.00;0.00;;;19.60;66.20;;;;;;5009788;28;20073;-70
2023/09/14 12:06:53;;;;;;;0.00;0.00;;;19.70;67.20;;;;;;5009889;28;20046;-70
2023/09/14 12:09:35;;;;;;;0.00;0.00;;;19.80;65.90;;;;;;5009433;28;20081;-70
2023/09/14 12:12:01;;;;;;;0.05;0.05;;;19.90;65.70;;;;;;5009610;28;20038;-70
2023/09/14 12:14:47;;;;;;;0.00;0.00;;;20.00;64.60;;;;;;5009834;28;20038;-70
2023/09/14 12:17:24;;;;;;;0.20;0.20;;;20.10;66.50;;;;;;5008995;28;20507;-70
2023/09/14 12:19:51;;;;;;;0.00;0.00;;;20.20;65.10;;;;;;5009838;28;20045;-71
2023/09/14 12:22:21;;;;;;;0.22;0.20;;;20.10;62.90;;;;;;5009546;28;20457;-70
2023/09/14 12:24:48;;;;;;;0.00;0.00;;;20.10;63.20;;;;;;5009263;28;20406;-70
2023/09/14 12:27:15;;;;;;;0.30;0.20;;;20.20;64.80;;;;;;5009673;28;20125;-70
2023/09/14 12:29:43;;;;;;;0.20;0.20;;;20.30;65.10;;;;;;5009587;28;20104;-71
2023/09/14 12:32:09;;;;;;;0.00;0.00;;;20.30;63.60;;;;;;5009790;28;20049;-70
2023/09/14 12:34:35;;;;;;;0.00;0.00;;;20.30;62.10;;;;;;5009440;28;20050;-70
2023/09/14 12:37:02;;;;;;;0.00;0.00;;;20.50;63.60;;;;;;5009170;28;20401;-71
2023/09/14 12:39:27;;;;;;;0.00;0.00;;;20.60;64.00;;;;;;5009255;28;20471;-70
2023/09/14 12:41:53;;;;;;;0.00;0.00;;;20.70;61.50;;;;;;5009465;28;20088;-70
2023/09/14 12:44:23;;;;;;;0.00;0.00;;;20.70;61.10;;;;;;4991758;28;20046;-71
2023/09/14 12:46:51;;;;;;;0.00;0.00;;;20.80;62.10;;;;;;5009431;28;20124;-70
2023/09/14 12:49:17;;;;;;;0.57;0.57;;;20.90;60.40;;;;;;4991909;28;20054;-70